NCAR-RAP Real-Time Weather Data

Output produced by METARs form (24 July 2017  08:51 UTC)
found at http://weather.rap.ucar.edu/surface/
 
Conditions at: KLEE observed 24 July 2017  07:53 UTC
Temperature: 26.7°C (80°F)
Dewpoint: 25.0°C (77°F) [RH = 90%]
Pressure (altimeter): 30.00 inches Hg (1016.0 mb)
[Sea-level pressure: 1015.9 mb]
Winds: from the S (190 degrees) at 7 MPH (6 knots; 3.1 m/s)
Visibility: 10 or more miles (16+ km)
Ceiling: at least 12,000 feet AGL
Clouds: sky clear below 12,000 feet AGL
Present Weather: automated observation with no human augmentation;
there may or may not be significant weather present at this time
KLEE 240753Z AUTO 19006KT 10SM CLR 27/25 A3000 RMK AO2 SLP159 T02670250

Conditions at: KLEE observed 24 July 2017  06:53 UTC
Temperature: 26.1°C (79°F)
Dewpoint: 24.4°C (76°F) [RH = 90%]
Pressure (altimeter): 30.03 inches Hg (1017.0 mb)
[Sea-level pressure: 1016.8 mb]
Winds: from the SSW (210 degrees) at 7 MPH (6 knots; 3.1 m/s)
Visibility: 10 or more miles (16+ km)
Ceiling: at least 12,000 feet AGL
Clouds: sky clear below 12,000 feet AGL
Present Weather: automated observation with no human augmentation;
there may or may not be significant weather present at this time
KLEE 240653Z AUTO 21006KT 10SM CLR 26/24 A3003 RMK AO2 SLP168 T02610244

Conditions at: KLEE observed 24 July 2017  05:53 UTC
Temperature: 26.7°C (80°F)
Dewpoint: 24.4°C (76°F) [RH = 87%]
Pressure (altimeter): 30.04 inches Hg (1017.4 mb)
[Sea-level pressure: 1017.1 mb]
Winds: from the S (170 degrees) at 6 MPH (5 knots; 2.6 m/s)
Visibility: 10 or more miles (16+ km)
Ceiling: at least 12,000 feet AGL
Clouds: sky clear below 12,000 feet AGL
Present Weather: automated observation with no human augmentation;
there may or may not be significant weather present at this time
KLEE 240553Z AUTO 17005KT 10SM CLR 27/24 A3004 RMK AO2 SLP171 T02670244 10267 20244 58001

Conditions at: KLEE observed 24 July 2017  04:53 UTC
Temperature: 26.7°C (80°F)
Dewpoint: 24.4°C (76°F) [RH = 87%]
Pressure (altimeter): 30.05 inches Hg (1017.7 mb)
[Sea-level pressure: 1017.3 mb]
Winds: from the S (180 degrees) at 8 MPH (7 knots; 3.6 m/s)
Visibility: 10 or more miles (16+ km)
Ceiling: at least 12,000 feet AGL
Clouds: sky clear below 12,000 feet AGL
Present Weather: automated observation with no human augmentation;
there may or may not be significant weather present at this time
KLEE 240453Z AUTO 18007KT 10SM CLR 27/24 A3005 RMK AO2 SLP173 T02670244 402890244

Conditions at: KLEE observed 24 July 2017  03:53 UTC
Temperature: 26.1°C (79°F)
Dewpoint: 23.9°C (75°F) [RH = 88%]
Pressure (altimeter): 30.05 inches Hg (1017.7 mb)
[Sea-level pressure: 1017.6 mb]
Winds: from the S (180 degrees) at 7 MPH (6 knots; 3.1 m/s)
Visibility: 10 or more miles (16+ km)
Ceiling: at least 12,000 feet AGL
Clouds: sky clear below 12,000 feet AGL
Present Weather: automated observation with no human augmentation;
there may or may not be significant weather present at this time
KLEE 240353Z AUTO 18006KT 10SM CLR 26/24 A3005 RMK AO2 SLP176 T02610239

Conditions at: KLEE observed 24 July 2017  02:53 UTC
Temperature: 24.4°C (76°F)
Dewpoint: 24.4°C (76°F) [RH = 100%]
Pressure (altimeter): 30.05 inches Hg (1017.7 mb)
[Sea-level pressure: 1017.3 mb]
Winds: calm
Visibility: 10 or more miles (16+ km)
Ceiling: at least 12,000 feet AGL
Clouds: sky clear below 12,000 feet AGL
Present Weather: automated observation with no human augmentation;
there may or may not be significant weather present at this time
KLEE 240253Z AUTO 00000KT 10SM CLR 24/24 A3005 RMK AO2 SLP173 T02440244 53018

Conditions at: KLEE observed 24 July 2017  01:53 UTC
Temperature: 25.0°C (77°F)
Dewpoint: 23.9°C (75°F) [RH = 94%]
Pressure (altimeter): 30.01 inches Hg (1016.3 mb)
[Sea-level pressure: 1016.2 mb]
Winds: calm
Visibility: 10 or more miles (16+ km)
Ceiling: at least 12,000 feet AGL
Clouds: sky clear below 12,000 feet AGL
Present Weather: automated observation with no human augmentation;
there may or may not be significant weather present at this time
KLEE 240153Z AUTO 00000KT 10SM CLR 25/24 A3001 RMK AO2 SLP162 T02500239

Conditions at: KLEE observed 24 July 2017  00:53 UTC
Temperature: 26.1°C (79°F)
Dewpoint: 23.9°C (75°F) [RH = 88%]
Pressure (altimeter): 30.01 inches Hg (1016.3 mb)
[Sea-level pressure: 1016.1 mb]
Winds: calm
Visibility: 10 or more miles (16+ km)
Ceiling: at least 12,000 feet AGL
Clouds: sky clear below 12,000 feet AGL
Present Weather: automated observation with no human augmentation;
there may or may not be significant weather present at this time
KLEE 240053Z AUTO 00000KT 10SM CLR 26/24 A3001 RMK AO2 SLP161 T02610239

Conditions at: KLEE observed 23 July 2017  23:53 UTC
Temperature: 26.7°C (80°F)
Dewpoint: 23.3°C (74°F) [RH = 82%]
Pressure (altimeter): 29.99 inches Hg (1015.7 mb)
[Sea-level pressure: 1015.5 mb]
Winds: calm
Visibility: 10 or more miles (16+ km)
Ceiling: at least 12,000 feet AGL
Clouds: sky clear below 12,000 feet AGL
Present Weather: automated observation with no human augmentation;
there may or may not be significant weather present at this time
KLEE 232353Z AUTO 00000KT 10SM CLR 27/23 A2999 RMK AO2 SLP155 T02670233 10278 20256 55018

Conditions at: KLEE observed 23 July 2017  22:53 UTC
Temperature: 26.7°C (80°F)
Dewpoint: 23.3°C (74°F) [RH = 82%]
Pressure (altimeter): 29.99 inches Hg (1015.7 mb)
[Sea-level pressure: 1015.3 mb]
Winds: from the S (190 degrees) at 6 MPH (5 knots; 2.6 m/s)
Visibility: 10 or more miles (16+ km)
Ceiling: at least 12,000 feet AGL
Clouds: sky clear below 12,000 feet AGL
Present Weather: automated observation with no human augmentation;
there may or may not be significant weather present at this time
KLEE 232253Z AUTO 19005KT 10SM CLR 27/23 A2999 RMK AO2 SLP153 T02670233

Conditions at: KLEE observed 23 July 2017  21:53 UTC
Temperature: 26.7°C (80°F)
Dewpoint: 23.3°C (74°F) [RH = 82%]
Pressure (altimeter): 30.02 inches Hg (1016.7 mb)
[Sea-level pressure: 1016.4 mb]
Winds: from the SSW (200 degrees) at 5 MPH (4 knots; 2.1 m/s)
Visibility: 10 or more miles (16+ km)
Ceiling: at least 12,000 feet AGL
Clouds: sky clear below 12,000 feet AGL
Present Weather: no significant weather observed at this time
KLEE 232153Z 20004KT 10SM CLR 27/23 A3002 RMK AO2 SLP164 T02670233

Conditions at: KLEE observed 23 July 2017  20:53 UTC
Temperature: 27.2°C (81°F)
Dewpoint: 23.3°C (74°F) [RH = 79%]
Pressure (altimeter): 30.05 inches Hg (1017.7 mb)
[Sea-level pressure: 1017.3 mb]
Winds: from the SW (230 degrees) at 5 MPH (4 knots; 2.1 m/s)
Visibility: 10 or more miles (16+ km)
Ceiling: at least 12,000 feet AGL
Clouds: few clouds at 12000 feet AGL
Present Weather: no significant weather observed at this time
KLEE 232053Z 23004KT 10SM FEW120 27/23 A3005 RMK AO2 SLP173 T02720233 56007

Conditions at: KLEE observed 23 July 2017  20:12 UTC
Temperature: 26.7°C (80°F)
Dewpoint: 23.3°C (74°F) [RH = 82%]
Pressure (altimeter): 30.05 inches Hg (1017.7 mb)
Winds: from the WSW (250 degrees) at 3 MPH (3 knots; 1.6 m/s)
Visibility: 10 or more miles (16+ km)
Ceiling: at least 12,000 feet AGL
Clouds: scattered clouds at 1800 feet AGL
Present Weather: no significant weather observed at this time
KLEE 232012Z 25003KT 10SM SCT018 27/23 A3005 RMK AO2 T02670233

Conditions at: KLEE observed 23 July 2017  19:53 UTC
Temperature: 26.7°C (80°F)
Dewpoint: 22.8°C (73°F) [RH = 79%]
Pressure (altimeter): 30.05 inches Hg (1017.7 mb)
[Sea-level pressure: 1017.6 mb]
Winds: from the SW (230 degrees) at 6 MPH (5 knots; 2.6 m/s)
Visibility: 10 or more miles (16+ km)
Ceiling: 2000 feet AGL
Clouds: broken clouds at 2000 feet AGL
Present Weather: no significant weather observed at this time
KLEE 231953Z 23005KT 10SM BKN020 27/23 A3005 RMK AO2 SLP176 T02670228

Conditions at: KLEE observed 23 July 2017  19:22 UTC
Temperature: 27.2°C (81°F)
Dewpoint: 23.9°C (75°F) [RH = 82%]
Pressure (altimeter): 30.05 inches Hg (1017.7 mb)
Winds: from the WSW (240 degrees) at 6 MPH (5 knots; 2.6 m/s)
Visibility: 10 or more miles (16+ km)
Ceiling: 1800 feet AGL
Clouds: broken clouds at 1800 feet AGL
broken clouds at 2500 feet AGL
Present Weather: no significant weather observed at this time
KLEE 231922Z 24005KT 10SM BKN018 BKN025 27/24 A3005 RMK AO2 T02720239

Conditions at: KLEE observed 23 July 2017  18:53 UTC
Temperature: 27.8°C (82°F)
Dewpoint: 23.9°C (75°F) [RH = 79%]
Pressure (altimeter): 30.05 inches Hg (1017.7 mb)
[Sea-level pressure: 1017.6 mb]
Winds: from the SSW (200 degrees) at 8 MPH (7 knots; 3.6 m/s)
Visibility: 10 or more miles (16+ km)
Ceiling: at least 12,000 feet AGL
Clouds: few clouds at 2100 feet AGL
Present Weather: no significant weather observed at this time
KLEE 231853Z 20007KT 10SM FEW021 28/24 A3005 RMK AO2 SLP176 T02780239

Conditions at: KLEE observed 23 July 2017  17:53 UTC
Temperature: 25.6°C (78°F)
Dewpoint: 22.8°C (73°F) [RH = 85%]
Pressure (altimeter): 30.07 inches Hg (1018.4 mb)
[Sea-level pressure: 1018.1 mb]
Winds: from the WNW (300 degrees) at 6 MPH (5 knots; 2.6 m/s)
Visibility: 10 or more miles (16+ km)
Ceiling: at least 12,000 feet AGL
Clouds: sky clear below 12,000 feet AGL
Present Weather: no significant weather observed at this time
KLEE 231753Z 30005KT 10SM CLR 26/23 A3007 RMK AO2 SLP181 60031 T02560228 10289 20244 58004

Conditions at: KLEE observed 23 July 2017  16:53 UTC
Temperature: 25.0°C (77°F)
Dewpoint: 23.3°C (74°F) [RH = 90%]
Pressure (altimeter): 30.10 inches Hg (1019.4 mb)
[Sea-level pressure: 1019.2 mb]
Winds: variable direction winds at 5 MPH (4 knots; 2.1 m/s)
Visibility: 10 or more miles (16+ km)
Ceiling: at least 12,000 feet AGL
Clouds: few clouds at 3800 feet AGL
Present Weather: no significant weather observed at this time
KLEE 231653Z VRB04KT 10SM FEW038 25/23 A3010 RMK AO2 LTG DSNT NE AND E SLP192 T02500233

Conditions at: KLEE observed 23 July 2017  16:08 UTC
Temperature: 24.4°C (76°F)
Dewpoint: 23.3°C (74°F) [RH = 94%]
Pressure (altimeter): 30.11 inches Hg (1019.7 mb)
Winds: variable direction winds at 6 MPH (5 knots; 2.6 m/s)
Visibility: 10 or more miles (16+ km)
Ceiling: 10000 feet AGL
Clouds: few clouds at 4600 feet AGL
broken clouds at 10000 feet AGL
Present Weather: no significant weather observed at this time
KLEE 231608Z VRB05KT 10SM FEW046 BKN100 24/23 A3011 RMK AO2 LTG DSNT NE AND E T02440233

Conditions at: KLEE observed 23 July 2017  15:53 UTC
Temperature: 24.4°C (76°F)
Dewpoint: 22.8°C (73°F) [RH = 91%]
Pressure (altimeter): 30.10 inches Hg (1019.4 mb)
[Sea-level pressure: 1019.3 mb]
Winds: from the W (260 degrees) at 8 MPH (7 knots; 3.6 m/s)
gusting to 17 MPH (15 knots; 7.8 m/s)
Visibility: 10 or more miles (16+ km)
Ceiling: 10000 feet AGL
Clouds: few clouds at 4800 feet AGL
scattered clouds at 7500 feet AGL
broken clouds at 10000 feet AGL
Present Weather: VCTS  (thunderstorm in vicinity)
KLEE 231553Z 26007G15KT 10SM VCTS FEW048 SCT075 BKN100 24/23 A3010 RMK AO2 LTG DSNT N-E RAE52 TSE05 SLP193 P0005 T02440228

Conditions at: KLEE observed 23 July 2017  15:12 UTC
Temperature: 24.4°C (76°F)
Dewpoint: 23.3°C (74°F) [RH = 94%]
Pressure (altimeter): 30.09 inches Hg (1019.0 mb)
Winds: from the W (260 degrees) at 6 MPH (5 knots; 2.6 m/s)
Visibility: 9 miles (14 km)
Ceiling: 7500 feet AGL
Clouds: scattered clouds at 3000 feet AGL
broken clouds at 7500 feet AGL
overcast cloud deck at 10000 feet AGL
Present Weather: VCTS -RA  (thunderstorm in vicinity, light rain)
KLEE 231512Z 26005KT 9SM VCTS -RA SCT030 BKN075 OVC100 24/23 A3009 RMK AO2 LTG DSNT N AND NE AND SW TSE05 P0003 T02440233

Conditions at: KLEE observed 23 July 2017  15:05 UTC
Temperature: 24.4°C (76°F)
Dewpoint: 23.3°C (74°F) [RH = 94%]
Pressure (altimeter): 30.08 inches Hg (1018.7 mb)
Winds: from the W (260 degrees) at 7 MPH (6 knots; 3.1 m/s)
Visibility: 3 miles (5 km)
Ceiling: 3200 feet AGL
Clouds: few clouds at 2100 feet AGL
broken clouds at 3200 feet AGL
overcast cloud deck at 10000 feet AGL
Present Weather: RA BR  (rain, mist)
KLEE 231505Z 26006KT 3SM RA BR FEW021 BKN032 OVC100 24/23 A3008 RMK AO2 LTG DSNT N AND NE AND SW TSE05 P0003 T02440233

Conditions at: KLEE observed 23 July 2017  15:00 UTC
Temperature: 24.4°C (76°F)
Dewpoint: 23.3°C (74°F) [RH = 94%]
Pressure (altimeter): 30.08 inches Hg (1018.7 mb)
Winds: from the WSW (240 degrees) at 6 MPH (5 knots; 2.6 m/s)
Visibility: 1.00 miles (1.61 km)
Ceiling: 3000 feet AGL
Clouds: few clouds at 2100 feet AGL
broken clouds at 3000 feet AGL
overcast cloud deck at 7500 feet AGL
Present Weather: +TSRA BR  (heavy rain associated with thunderstorm(s), mist)
KLEE 231500Z 24005KT 1SM +TSRA BR FEW021 BKN030 OVC075 24/23 A3008 RMK AO2 LTG DSNT N AND NE AND SW P0003 T02440233

Conditions at: KLEE observed 23 July 2017  14:53 UTC
Temperature: 24.4°C (76°F)
Dewpoint: 22.8°C (73°F) [RH = 91%]
Pressure (altimeter): 30.08 inches Hg (1018.7 mb)
[Sea-level pressure: 1018.5 mb]
Winds: variable direction winds at 3 MPH (3 knots; 1.6 m/s)
gusting to 22 MPH (19 knots; 9.9 m/s)
Visibility: 0.50 miles (0.80 km)
Ceiling: 2100 feet AGL
Clouds: broken clouds at 2100 feet AGL
broken clouds at 2900 feet AGL
overcast cloud deck at 5000 feet AGL
Present Weather: +TSRA FG  (heavy rain associated with thunderstorm(s), fog)
KLEE 231453Z VRB03G19KT 1/2SM +TSRA FG BKN021 BKN029 OVC050 24/23 A3008 RMK AO2 LTG DSNT N AND NE AND SW RAB46 TSB43 SLP185 P0026 60026 T02440228 53009

Conditions at: KLEE observed 23 July 2017  14:47 UTC
Temperature: 26.0°C (79°F)
Dewpoint: 23.0°C (73°F) [RH = 84%]
Pressure (altimeter): 30.08 inches Hg (1018.7 mb)
Winds: from the SW (230 degrees) at 16 MPH (14 knots; 7.3 m/s)
gusting to 23 MPH (20 knots; 10.4 m/s)
Visibility: 1.75 miles (2.82 km)
Ceiling: 2700 feet AGL
Clouds: few clouds at 2100 feet AGL
broken clouds at 2700 feet AGL
overcast cloud deck at 5000 feet AGL
Present Weather: -TSRA BR  (light rain associated with thunderstorm(s), mist)
KLEE 231447Z 23014G20KT 1 3/4SM -TSRA BR FEW021 BKN027 OVC050 26/23 A3008 RMK AO2 LTG DSNT N AND NE AND SW RAB46 TSB43 P0007

Conditions at: KLEE observed 23 July 2017  14:29 UTC
Temperature: 27.8°C (82°F)
Dewpoint: 23.9°C (75°F) [RH = 79%]
Pressure (altimeter): 30.07 inches Hg (1018.4 mb)
Winds: from the SW (220 degrees) at 9 MPH (8 knots; 4.2 m/s)
Visibility: 10 or more miles (16+ km)
Ceiling: 2700 feet AGL
Clouds: broken clouds at 2700 feet AGL
broken clouds at 3400 feet AGL
overcast cloud deck at 5000 feet AGL
Present Weather: no significant weather observed at this time
KLEE 231429Z 22008KT 10SM BKN027 BKN034 OVC050 28/24 A3007 RMK AO2 LTG DSNT N T02780239

Conditions at: KLEE observed 23 July 2017  13:53 UTC
Temperature: 28.3°C (83°F)
Dewpoint: 24.4°C (76°F) [RH = 79%]
Pressure (altimeter): 30.07 inches Hg (1018.4 mb)
[Sea-level pressure: 1018.0 mb]
Winds: from the SSW (200 degrees) at 7 MPH (6 knots; 3.1 m/s)
Visibility: 10 or more miles (16+ km)
Ceiling: at least 12,000 feet AGL
Clouds: scattered clouds at 5500 feet AGL
Present Weather: no significant weather observed at this time
KLEE 231353Z 20006KT 10SM SCT055 28/24 A3007 RMK AO2 LTG DSNT N AND NW SLP180 T02830244

Conditions at: KLEE observed 23 July 2017  12:53 UTC
Temperature: 27.2°C (81°F)
Dewpoint: 24.4°C (76°F) [RH = 85%]
Pressure (altimeter): 30.06 inches Hg (1018.0 mb)
[Sea-level pressure: 1017.9 mb]
Winds: from the S (190 degrees) at 7 MPH (6 knots; 3.1 m/s)
Visibility: 10 or more miles (16+ km)
Ceiling: at least 12,000 feet AGL
Clouds: few clouds at 4400 feet AGL
scattered clouds at 6000 feet AGL
Present Weather: no significant weather observed at this time
KLEE 231253Z 19006KT 10SM FEW044 SCT060 27/24 A3006 RMK AO2 SLP179 T02720244

Conditions at: KLEE observed 23 July 2017  11:53 UTC
Temperature: 26.1°C (79°F)
Dewpoint: 24.4°C (76°F) [RH = 90%]
Pressure (altimeter): 30.05 inches Hg (1017.7 mb)
[Sea-level pressure: 1017.6 mb]
Winds: from the SSE (160 degrees) at 6 MPH (5 knots; 2.6 m/s)
Visibility: 10 or more miles (16+ km)
Ceiling: at least 12,000 feet AGL
Clouds: sky clear below 12,000 feet AGL
Present Weather: no significant weather observed at this time
KLEE 231153Z 16005KT 10SM CLR 26/24 A3005 RMK AO2 SLP176 70022 T02610244 10261 20256 53011

Conditions at: KLEE observed 23 July 2017  10:53 UTC
Temperature: 25.6°C (78°F)
Dewpoint: 24.4°C (76°F) [RH = 93%]
Pressure (altimeter): 30.03 inches Hg (1017.0 mb)
[Sea-level pressure: 1016.6 mb]
Winds: from the S (170 degrees) at 8 MPH (7 knots; 3.6 m/s)
Visibility: 10 or more miles (16+ km)
Ceiling: at least 12,000 feet AGL
Clouds: sky clear below 12,000 feet AGL
Present Weather: no significant weather observed at this time
KLEE 231053Z 17007KT 10SM CLR 26/24 A3003 RMK AO2 SLP166 T02560244

Conditions at: KLEE observed 23 July 2017  09:53 UTC
Temperature: 26.1°C (79°F)
Dewpoint: 24.4°C (76°F) [RH = 90%]
Pressure (altimeter): 30.03 inches Hg (1017.0 mb)
[Sea-level pressure: 1016.7 mb]
Winds: from the S (190 degrees) at 6 MPH (5 knots; 2.6 m/s)
Visibility: 10 or more miles (16+ km)
Ceiling: at least 12,000 feet AGL
Clouds: sky clear below 12,000 feet AGL
Present Weather: automated observation with no human augmentation;
there may or may not be significant weather present at this time
KLEE 230953Z AUTO 19005KT 10SM CLR 26/24 A3003 RMK AO2 SLP167 T02610244

Conditions at: KLEE observed 23 July 2017  08:53 UTC
Temperature: 26.1°C (79°F)
Dewpoint: 24.4°C (76°F) [RH = 90%]
Pressure (altimeter): 30.02 inches Hg (1016.7 mb)
[Sea-level pressure: 1016.5 mb]
Winds: from the S (190 degrees) at 6 MPH (5 knots; 2.6 m/s)
Visibility: 10 or more miles (16+ km)
Ceiling: at least 12,000 feet AGL
Clouds: sky clear below 12,000 feet AGL
Present Weather: automated observation with no human augmentation;
there may or may not be significant weather present at this time
KLEE 230853Z AUTO 19005KT 10SM CLR 26/24 A3002 RMK AO2 SLP165 T02610244 55010

Conditions at: KLEE observed 23 July 2017  07:53 UTC
Temperature: 26.1°C (79°F)
Dewpoint: 24.4°C (76°F) [RH = 90%]
Pressure (altimeter): 30.02 inches Hg (1016.7 mb)
[Sea-level pressure: 1016.3 mb]
Winds: from the S (180 degrees) at 8 MPH (7 knots; 3.6 m/s)
Visibility: 10 or more miles (16+ km)
Ceiling: at least 12,000 feet AGL
Clouds: sky clear below 12,000 feet AGL
Present Weather: automated observation with no human augmentation;
there may or may not be significant weather present at this time
KLEE 230753Z AUTO 18007KT 10SM CLR 26/24 A3002 RMK AO2 SLP163 T02610244

Conditions at: KLEE observed 23 July 2017  06:53 UTC
Temperature: 26.1°C (79°F)
Dewpoint: 25.0°C (77°F) [RH = 94%]
Pressure (altimeter): 30.03 inches Hg (1017.0 mb)
[Sea-level pressure: 1016.9 mb]
Winds: from the S (180 degrees) at 8 MPH (7 knots; 3.6 m/s)
Visibility: 10 or more miles (16+ km)
Ceiling: at least 12,000 feet AGL
Clouds: sky clear below 12,000 feet AGL
Present Weather: automated observation with no human augmentation;
there may or may not be significant weather present at this time
KLEE 230653Z AUTO 18007KT 10SM CLR 26/25 A3003 RMK AO2 SLP169 T02610250

Conditions at: KLEE observed 23 July 2017  05:53 UTC
Temperature: 26.1°C (79°F)
Dewpoint: 24.4°C (76°F) [RH = 90%]
Pressure (altimeter): 30.05 inches Hg (1017.7 mb)
[Sea-level pressure: 1017.5 mb]
Winds: from the S (190 degrees) at 6 MPH (5 knots; 2.6 m/s)
Visibility: 10 or more miles (16+ km)
Ceiling: at least 12,000 feet AGL
Clouds: sky clear below 12,000 feet AGL
Present Weather: automated observation with no human augmentation;
there may or may not be significant weather present at this time
KLEE 230553Z AUTO 19005KT 10SM CLR 26/24 A3005 RMK AO2 SLP175 T02610244 10267 20256 58003

Conditions at: KLEE observed 23 July 2017  04:53 UTC
Temperature: 26.1°C (79°F)
Dewpoint: 24.4°C (76°F) [RH = 90%]
Pressure (altimeter): 30.07 inches Hg (1018.4 mb)
[Sea-level pressure: 1018.0 mb]
Winds: from the S (180 degrees) at 3 MPH (3 knots; 1.6 m/s)
Visibility: 10 or more miles (16+ km)
Ceiling: at least 12,000 feet AGL
Clouds: sky clear below 12,000 feet AGL
Present Weather: automated observation with no human augmentation;
there may or may not be significant weather present at this time
KLEE 230453Z AUTO 18003KT 10SM CLR 26/24 A3007 RMK AO2 SLP180 T02610244 403220244

Conditions at: KLEE observed 23 July 2017  03:53 UTC
Temperature: 25.6°C (78°F)
Dewpoint: 25.0°C (77°F) [RH = 96%]
Pressure (altimeter): 30.07 inches Hg (1018.4 mb)
[Sea-level pressure: 1018.2 mb]
Winds: from the SSE (160 degrees) at 5 MPH (4 knots; 2.1 m/s)
Visibility: 10 or more miles (16+ km)
Ceiling: at least 12,000 feet AGL
Clouds: few clouds at 900 feet AGL
Present Weather: automated observation with no human augmentation;
there may or may not be significant weather present at this time
KLEE 230353Z AUTO 16004KT 10SM FEW009 26/25 A3007 RMK AO2 SLP182 T02560250

Conditions at: KLEE observed 23 July 2017  02:53 UTC
Temperature: 25.6°C (78°F)
Dewpoint: 25.0°C (77°F) [RH = 96%]
Pressure (altimeter): 30.06 inches Hg (1018.0 mb)
[Sea-level pressure: 1017.8 mb]
Winds: from the S (170 degrees) at 6 MPH (5 knots; 2.6 m/s)
Visibility: 10 or more miles (16+ km)
Ceiling: at least 12,000 feet AGL
Clouds: scattered clouds at 800 feet AGL
Present Weather: automated observation with no human augmentation;
there may or may not be significant weather present at this time
KLEE 230253Z AUTO 17005KT 10SM SCT008 26/25 A3006 RMK AO2 SLP178 T02560250 53007

Conditions at: KLEE observed 23 July 2017  01:53 UTC
Temperature: 25.6°C (78°F)
Dewpoint: 24.4°C (76°F) [RH = 93%]
Pressure (altimeter): 30.05 inches Hg (1017.7 mb)
[Sea-level pressure: 1017.4 mb]
Winds: from the S (190 degrees) at 9 MPH (8 knots; 4.2 m/s)
Visibility: 10 or more miles (16+ km)
Ceiling: at least 12,000 feet AGL
Clouds: few clouds at 800 feet AGL
Present Weather: automated observation with no human augmentation;
there may or may not be significant weather present at this time
KLEE 230153Z AUTO 19008KT 10SM FEW008 26/24 A3005 RMK AO2 SLP174 T02560244

Conditions at: KLEE observed 23 July 2017  01:01 UTC
Temperature: 25.6°C (78°F)
Dewpoint: 25.0°C (77°F) [RH = 96%]
Pressure (altimeter): 30.05 inches Hg (1017.7 mb)
Winds: from the SSW (210 degrees) at 6 MPH (5 knots; 2.6 m/s)
Visibility: 10 or more miles (16+ km)
Ceiling: at least 12,000 feet AGL
Clouds: few clouds at 700 feet AGL
Present Weather: automated observation with no human augmentation;
there may or may not be significant weather present at this time
KLEE 230101Z AUTO 21005KT 10SM FEW007 26/25 A3005 RMK AO2 T02560250

Conditions at: KLEE observed 23 July 2017  00:53 UTC
Temperature: 25.6°C (78°F)
Dewpoint: 25.0°C (77°F) [RH = 96%]
Pressure (altimeter): 30.05 inches Hg (1017.7 mb)
[Sea-level pressure: 1017.4 mb]
Winds: from the SSW (200 degrees) at 8 MPH (7 knots; 3.6 m/s)
Visibility: 10 or more miles (16+ km)
Ceiling: at least 12,000 feet AGL
Clouds: sky clear below 12,000 feet AGL
Present Weather: automated observation with no human augmentation;
there may or may not be significant weather present at this time
KLEE 230053Z AUTO 20007KT 10SM CLR 26/25 A3005 RMK AO2 SLP174 T02560250

Conditions at: KLEE observed 22 July 2017  23:53 UTC
Temperature: 26.1°C (79°F)
Dewpoint: 24.4°C (76°F) [RH = 90%]
Pressure (altimeter): 30.04 inches Hg (1017.4 mb)
[Sea-level pressure: 1017.1 mb]
Winds: from the S (180 degrees) at 8 MPH (7 knots; 3.6 m/s)
Visibility: 10 or more miles (16+ km)
Ceiling: at least 12,000 feet AGL
Clouds: sky clear below 12,000 feet AGL
Present Weather: automated observation with no human augmentation;
there may or may not be significant weather present at this time
KLEE 222353Z AUTO 18007KT 10SM CLR 26/24 A3004 RMK AO2 SLP171 60008 T02610244 10261 20244 58012

Conditions at: KLEE observed 22 July 2017  22:53 UTC
Temperature: 26.1°C (79°F)
Dewpoint: 25.0°C (77°F) [RH = 94%]
Pressure (altimeter): 30.05 inches Hg (1017.7 mb)
[Sea-level pressure: 1017.5 mb]
Winds: from the SSE (160 degrees) at 3 MPH (3 knots; 1.6 m/s)
Visibility: 10 or more miles (16+ km)
Ceiling: at least 12,000 feet AGL
Clouds: few clouds at 7000 feet AGL
few clouds at 9500 feet AGL
scattered clouds at 12000 feet AGL
Present Weather: automated observation with no human augmentation;
there may or may not be significant weather present at this time
KLEE 222253Z AUTO 16003KT 10SM FEW070 FEW095 SCT120 26/25 A3005 RMK AO2 RAB2154E41 SLP175 P0001 T02610250

Conditions at: KLEE observed 22 July 2017  21:53 UTC
Temperature: 25.6°C (78°F)
Dewpoint: 24.4°C (76°F) [RH = 93%]
Pressure (altimeter): 30.08 inches Hg (1018.7 mb)
[Sea-level pressure: 1018.4 mb]
Winds: calm
Visibility: 10 or more miles (16+ km)
Ceiling: 9000 feet AGL
Clouds: scattered clouds at 7000 feet AGL
broken clouds at 9000 feet AGL
Present Weather: no significant weather observed at this time
KLEE 222153Z 00000KT 10SM SCT070 BKN090 26/24 A3008 RMK AO2 RAE26 SLP184 P0001 T02560244

Conditions at: KLEE observed 22 July 2017  20:53 UTC
Temperature: 25.6°C (78°F)
Dewpoint: 24.4°C (76°F) [RH = 93%]
Pressure (altimeter): 30.07 inches Hg (1018.4 mb)
[Sea-level pressure: 1018.3 mb]
Winds: from the S (180 degrees) at 6 MPH (5 knots; 2.6 m/s)
Visibility: 10 or more miles (16+ km)
Ceiling: 7500 feet AGL
Clouds: few clouds at 6000 feet AGL
broken clouds at 7500 feet AGL
overcast cloud deck at 10000 feet AGL
Present Weather: -RA  (light rain)
KLEE 222053Z 18005KT 10SM -RA FEW060 BKN075 OVC100 26/24 A3007 RMK AO2 SLP183 P0003 60006 T02560244 55011

Conditions at: KLEE observed 22 July 2017  19:53 UTC
Temperature: 25.0°C (77°F)
Dewpoint: 24.4°C (76°F) [RH = 96%]
Pressure (altimeter): 30.07 inches Hg (1018.4 mb)
[Sea-level pressure: 1018.0 mb]
Winds: calm
Visibility: 10 or more miles (16+ km)
Ceiling: 9500 feet AGL
Clouds: broken clouds at 9500 feet AGL
overcast cloud deck at 12000 feet AGL
Present Weather: -RA  (light rain)
KLEE 221953Z 00000KT 10SM -RA BKN095 OVC120 25/24 A3007 RMK AO2 LTG DSNT N RAB1859 SLP180 P0003 T02500244

Conditions at: KLEE observed 22 July 2017  19:43 UTC
Temperature: 25.0°C (77°F)
Dewpoint: 23.9°C (75°F) [RH = 94%]
Pressure (altimeter): 30.06 inches Hg (1018.0 mb)
Winds: calm
Visibility: 10 or more miles (16+ km)
Ceiling: 10000 feet AGL
Clouds: broken clouds at 10000 feet AGL
broken clouds at 12000 feet AGL
Present Weather: -RA  (light rain)
KLEE 221943Z 00000KT 10SM -RA BKN100 BKN120 25/24 A3006 RMK AO2 RAB1859 P0002 T02500239

Conditions at: KLEE observed 22 July 2017  18:53 UTC
Temperature: 24.4°C (76°F)
Dewpoint: 23.9°C (75°F) [RH = 97%]
Pressure (altimeter): 30.08 inches Hg (1018.7 mb)
[Sea-level pressure: 1018.5 mb]
Winds: calm
Visibility: 10 or more miles (16+ km)
Ceiling: at least 12,000 feet AGL
Clouds: sky clear below 12,000 feet AGL
Present Weather: VCTS  (thunderstorm in vicinity)
KLEE 221853Z 00000KT 10SM VCTS CLR 24/24 A3008 RMK AO2 LTG DSNT E-S RAE1755 TSE1757 SLP185 P0000 T02440239

Conditions at: KLEE observed 22 July 2017  18:39 UTC
Temperature: 24.4°C (76°F)
Dewpoint: 23.9°C (75°F) [RH = 97%]
Pressure (altimeter): 30.10 inches Hg (1019.4 mb)
Winds: calm
Visibility: 10 or more miles (16+ km)
Ceiling: at least 12,000 feet AGL
Clouds: sky clear below 12,000 feet AGL
Present Weather: no significant weather observed at this time
KLEE 221839Z 00000KT 10SM CLR 24/24 A3010 RMK AO2 LTG DSNT ALQDS RAE1755 TSE1757 P0000 T02440239

Conditions at: KLEE observed 22 July 2017  18:24 UTC
Temperature: 24.4°C (76°F)
Dewpoint: 23.3°C (74°F) [RH = 94%]
Pressure (altimeter): 30.09 inches Hg (1019.0 mb)
Winds: from the S (190 degrees) at 10 MPH (9 knots; 4.7 m/s)
Visibility: 10 or more miles (16+ km)
Ceiling: at least 12,000 feet AGL
Clouds: scattered clouds at 9500 feet AGL
Present Weather: VCTS  (thunderstorm in vicinity)
KLEE 221824Z 19009KT 10SM VCTS SCT095 24/23 A3009 RMK AO2 LTG DSNT ALQDS RAE1755 TSE1757 P0000 T02440233

Conditions at: KLEE observed 22 July 2017  18:14 UTC
Temperature: 24.4°C (76°F)
Dewpoint: 23.3°C (74°F) [RH = 94%]
Pressure (altimeter): 30.09 inches Hg (1019.0 mb)
Winds: from the S (190 degrees) at 12 MPH (10 knots; 5.2 m/s)
Visibility: 10 or more miles (16+ km)
Ceiling: 9500 feet AGL
Clouds: few clouds at 7000 feet AGL
broken clouds at 9500 feet AGL
broken clouds at 11000 feet AGL
Present Weather: no significant weather observed at this time
KLEE 221814Z 19010KT 10SM FEW070 BKN095 BKN110 24/23 A3009 RMK AO2 LTG DSNT ALQDS RAE1755 TSE1757 P0000 T02440233

Conditions at: KLEE observed 22 July 2017  18:03 UTC
Temperature: 24.4°C (76°F)
Dewpoint: 23.3°C (74°F) [RH = 94%]
Pressure (altimeter): 30.10 inches Hg (1019.4 mb)
Winds: from the S (190 degrees) at 6 MPH (5 knots; 2.6 m/s)
Visibility: 10 or more miles (16+ km)
Ceiling: 11000 feet AGL
Clouds: few clouds at 5500 feet AGL
scattered clouds at 9000 feet AGL
overcast cloud deck at 11000 feet AGL
Present Weather: VCTS  (thunderstorm in vicinity)
KLEE 221803Z 19005KT 10SM VCTS FEW055 SCT090 OVC110 24/23 A3010 RMK AO2 LTG DSNT ALQDS RAE1755 TSE1757 PRESFR P0000 T02440233

Conditions at: KLEE observed 22 July 2017  17:53 UTC
Temperature: 24.4°C (76°F)
Dewpoint: 23.9°C (75°F) [RH = 97%]
Pressure (altimeter): 30.11 inches Hg (1019.7 mb)
[Sea-level pressure: 1019.4 mb]
Winds: from the S (190 degrees) at 7 MPH (6 knots; 3.1 m/s)
Visibility: 10 or more miles (16+ km)
Ceiling: 11000 feet AGL
Clouds: scattered clouds at 4500 feet AGL
overcast cloud deck at 11000 feet AGL
Present Weather: -TSRA  (light rain associated with thunderstorm(s))
KLEE 221753Z 19006KT 10SM -TSRA SCT045 OVC110 24/24 A3011 RMK AO2 WSHFT 1659 LTG DSNT ALQDS RAB11 TSB1657 SLP194 P0006 60014 T02440239 10322 20244 53003

Conditions at: KLEE observed 22 July 2017  17:45 UTC
Temperature: 24.4°C (76°F)
Dewpoint: 23.3°C (74°F) [RH = 94%]
Pressure (altimeter): 30.12 inches Hg (1020.1 mb)
Winds: from the SE (130 degrees) at 5 MPH (4 knots; 2.1 m/s)
Visibility: 9 miles (14 km)
Ceiling: 6000 feet AGL
Clouds: scattered clouds at 4500 feet AGL
broken clouds at 6000 feet AGL
overcast cloud deck at 11000 feet AGL
Present Weather: -TSRA  (light rain associated with thunderstorm(s))
KLEE 221745Z 13004KT 9SM -TSRA SCT045 BKN060 OVC110 24/23 A3012 RMK AO2 WSHFT 1659 LTG DSNT ALQDS RAB11 TSB1657 P0006 T02440233

Conditions at: KLEE observed 22 July 2017  17:29 UTC
Temperature: 24.4°C (76°F)
Dewpoint: 23.3°C (74°F) [RH = 94%]
Pressure (altimeter): 30.13 inches Hg (1020.4 mb)
Winds: from the W (270 degrees) at 6 MPH (5 knots; 2.6 m/s)
gusting to 16 MPH (14 knots; 7.3 m/s)
Visibility: 2.50 miles (4.02 km)
Ceiling: 3900 feet AGL
Clouds: few clouds at 800 feet AGL
broken clouds at 3900 feet AGL
overcast cloud deck at 5500 feet AGL
Present Weather: +TSRA BR  (heavy rain associated with thunderstorm(s), mist)
KLEE 221729Z 27005G14KT 2 1/2SM +TSRA BR FEW008 BKN039 OVC055 24/23 A3013 RMK AO2 WSHFT 1659 VIS 1 1/4V5 LTG DSNT ALQDS RAB11 TSB1657 P0004 T02440233

Conditions at: KLEE observed 22 July 2017  17:14 UTC
Temperature: 25.0°C (77°F)
Dewpoint: 23.3°C (74°F) [RH = 90%]
Pressure (altimeter): 30.13 inches Hg (1020.4 mb)
Winds: from the WSW (250 degrees) at 10 MPH (9 knots; 4.7 m/s)
gusting to 28 MPH (24 knots; 12.5 m/s)
Visibility: 7 miles (11 km)
Ceiling: 2500 feet AGL
Clouds: few clouds at 900 feet AGL
broken clouds at 2500 feet AGL
broken clouds at 4500 feet AGL
Present Weather: -TSRA  (light rain associated with thunderstorm(s))
KLEE 221714Z 25009G24KT 230V290 7SM -TSRA FEW009 BKN025 BKN045 25/23 A3013 RMK AO2 WSHFT 1659 LTG DSNT ALQDS RAB11 TSB1657 CIG 018V034 P0000 T02500233

Conditions at: KLEE observed 22 July 2017  17:03 UTC
Temperature: 27.8°C (82°F)
Dewpoint: 23.9°C (75°F) [RH = 79%]
Pressure (altimeter): 30.10 inches Hg (1019.4 mb)
Winds: from the S (190 degrees) at 12 MPH (10 knots; 5.2 m/s)
Visibility: 10 or more miles (16+ km)
Ceiling: at least 12,000 feet AGL
Clouds: few clouds at 5000 feet AGL
scattered clouds at 9000 feet AGL
scattered clouds at 11000 feet AGL
Present Weather: TS  (thunderstorm)
KLEE 221703Z 19010KT 10SM TS FEW050 SCT090 SCT110 28/24 A3010 RMK AO2 LTG DSNT ALQDS TSB1657 T02780239

Conditions at: KLEE observed 22 July 2017  16:53 UTC
Temperature: 28.3°C (83°F)
Dewpoint: 23.9°C (75°F) [RH = 77%]
Pressure (altimeter): 30.08 inches Hg (1018.7 mb)
[Sea-level pressure: 1018.5 mb]
Winds: from the S (170 degrees) at 9 MPH (8 knots; 4.2 m/s)
Visibility: 10 or more miles (16+ km)
Ceiling: at least 12,000 feet AGL
Clouds: few clouds at 3300 feet AGL
few clouds at 9000 feet AGL
scattered clouds at 11000 feet AGL
Present Weather: VCTS  (thunderstorm in vicinity)
KLEE 221653Z 17008KT 10SM VCTS FEW033 FEW090 SCT110 28/24 A3008 RMK AO2 LTG DSNT ALQDS RAB02E17 TSB09E35 SLP185 P0008 T02830239

Conditions at: KLEE observed 22 July 2017  16:41 UTC
Temperature: 28.3°C (83°F)
Dewpoint: 24.4°C (76°F) [RH = 79%]
Pressure (altimeter): 30.09 inches Hg (1019.0 mb)
Winds: from the S (170 degrees) at 9 MPH (8 knots; 4.2 m/s)
Visibility: 10 or more miles (16+ km)
Ceiling: at least 12,000 feet AGL
Clouds: few clouds at 4600 feet AGL
scattered clouds at 9000 feet AGL
Present Weather: VCTS  (thunderstorm in vicinity)
KLEE 221641Z 17008KT 10SM VCTS FEW046 SCT090 28/24 A3009 RMK AO2 LTG DSNT ALQDS RAB02E17 TSB09E35 P0008 T02830244

Conditions at: KLEE observed 22 July 2017  16:15 UTC
Temperature: 28.9°C (84°F)
Dewpoint: 25.6°C (78°F) [RH = 82%]
Pressure (altimeter): 30.09 inches Hg (1019.0 mb)
Winds: from the SE (130 degrees) at 5 MPH (4 knots; 2.1 m/s)
Visibility: 10 or more miles (16+ km)
Ceiling: 9500 feet AGL
Clouds: few clouds at 3600 feet AGL
scattered clouds at 5000 feet AGL
broken clouds at 9500 feet AGL
Present Weather: -TSRA  (light rain associated with thunderstorm(s))
KLEE 221615Z 13004KT 10SM -TSRA FEW036 SCT050 BKN095 29/26 A3009 RMK AO2 LTG DSNT S-NW RAB02 TSB09 P0008 T02890256

Conditions at: KLEE observed 22 July 2017  16:04 UTC
Temperature: 28.9°C (84°F)
Dewpoint: 23.9°C (75°F) [RH = 74%]
Pressure (altimeter): 30.09 inches Hg (1019.0 mb)
Winds: from the SSE (160 degrees) at 9 MPH (8 knots; 4.2 m/s)
gusting to 28 MPH (24 knots; 12.5 m/s)
Visibility: 1.75 miles (2.82 km)
Ceiling: 4200 feet AGL
Clouds: scattered clouds at 3600 feet AGL
broken clouds at 4200 feet AGL
broken clouds at 4900 feet AGL
Present Weather: VCTS +RA  (thunderstorm in vicinity, heavy rain)
KLEE 221604Z 16008G24KT 1 3/4SM VCTS +RA SCT036 BKN042 BKN049 29/24 A3009 RMK AO2 LTG DSNT S-NW RAB02 P0007 T02890239

Conditions at: KLEE observed 22 July 2017  15:53 UTC
Temperature: 32.2°C (90°F)
Dewpoint: 25.0°C (77°F) [RH = 66%]
Pressure (altimeter): 30.09 inches Hg (1019.0 mb)
[Sea-level pressure: 1018.8 mb]
Winds: from the SSW (200 degrees) at 7 MPH (6 knots; 3.1 m/s)
Visibility: 10 or more miles (16+ km)
Ceiling: 4400 feet AGL
Clouds: scattered clouds at 3000 feet AGL
broken clouds at 4400 feet AGL
broken clouds at 5000 feet AGL
Present Weather: VCTS  (thunderstorm in vicinity)
KLEE 221553Z 20006KT 10SM VCTS SCT030 BKN044 BKN050 32/25 A3009 RMK AO2 LTG DSNT S-W SLP188 T03220250

Conditions at: KLEE observed 22 July 2017  14:53 UTC
Temperature: 31.1°C (88°F)
Dewpoint: 25.6°C (78°F) [RH = 73%]
Pressure (altimeter): 30.10 inches Hg (1019.4 mb)
[Sea-level pressure: 1019.0 mb]
Winds: from the SSW (210 degrees) at 6 MPH (5 knots; 2.6 m/s)
Visibility: 10 or more miles (16+ km)
Ceiling: at least 12,000 feet AGL
Clouds: sky clear below 12,000 feet AGL
Present Weather: no significant weather observed at this time
KLEE 221453Z 21005KT 10SM CLR 31/26 A3010 RMK AO2 LTG DSNT W SLP190 T03110256 50005

Conditions at: KLEE observed 22 July 2017  13:53 UTC
Temperature: 29.4°C (85°F)
Dewpoint: 26.1°C (79°F) [RH = 82%]
Pressure (altimeter): 30.11 inches Hg (1019.7 mb)
[Sea-level pressure: 1019.4 mb]
Winds: from the S (190 degrees) at 6 MPH (5 knots; 2.6 m/s)
Visibility: 10 or more miles (16+ km)
Ceiling: at least 12,000 feet AGL
Clouds: sky clear below 12,000 feet AGL
Present Weather: no significant weather observed at this time
KLEE 221353Z 19005KT 10SM CLR 29/26 A3011 RMK AO2 SLP194 T02940261

Conditions at: KLEE observed 22 July 2017  12:53 UTC
Temperature: 28.3°C (83°F)
Dewpoint: 25.6°C (78°F) [RH = 85%]
Pressure (altimeter): 30.10 inches Hg (1019.4 mb)
[Sea-level pressure: 1019.2 mb]
Winds: from the SSW (200 degrees) at 6 MPH (5 knots; 2.6 m/s)
Visibility: 10 or more miles (16+ km)
Ceiling: at least 12,000 feet AGL
Clouds: sky clear below 12,000 feet AGL
Present Weather: no significant weather observed at this time
KLEE 221253Z 20005KT 10SM CLR 28/26 A3010 RMK AO2 SLP192 T02830256

Conditions at: KLEE observed 22 July 2017  11:53 UTC
Temperature: 26.1°C (79°F)
Dewpoint: 25.6°C (78°F) [RH = 97%]
Pressure (altimeter): 30.08 inches Hg (1018.7 mb)
[Sea-level pressure: 1018.5 mb]
Winds: from the S (190 degrees) at 6 MPH (5 knots; 2.6 m/s)
Visibility: 9 miles (14 km)
Ceiling: at least 12,000 feet AGL
Clouds: sky clear below 12,000 feet AGL
Present Weather: no significant weather observed at this time
KLEE 221153Z 19005KT 9SM CLR 26/26 A3008 RMK AO2 SLP185 T02610256 10261 20250 53017

Conditions at: KLEE observed 22 July 2017  10:53 UTC
Temperature: 25.6°C (78°F)
Dewpoint: 25.0°C (77°F) [RH = 96%]
Pressure (altimeter): 30.07 inches Hg (1018.4 mb)
[Sea-level pressure: 1018.0 mb]
Winds: calm
Visibility: 10 or more miles (16+ km)
Ceiling: at least 12,000 feet AGL
Clouds: sky clear below 12,000 feet AGL
Present Weather: no significant weather observed at this time
KLEE 221053Z 00000KT 10SM CLR 26/25 A3007 RMK AO2 SLP180 T02560250

Conditions at: KLEE observed 22 July 2017  09:53 UTC
Temperature: 25.6°C (78°F)
Dewpoint: 24.4°C (76°F) [RH = 93%]
Pressure (altimeter): 30.04 inches Hg (1017.4 mb)
[Sea-level pressure: 1017.1 mb]
Winds: from the S (190 degrees) at 7 MPH (6 knots; 3.1 m/s)
Visibility: 10 or more miles (16+ km)
Ceiling: at least 12,000 feet AGL
Clouds: sky clear below 12,000 feet AGL
Present Weather: automated observation with no human augmentation;
there may or may not be significant weather present at this time
KLEE 220953Z AUTO 19006KT 10SM CLR 26/24 A3004 RMK AO2 SLP171 T02560244

Conditions at: KLEE observed 22 July 2017  08:53 UTC
Temperature: 25.0°C (77°F)
Dewpoint: 23.3°C (74°F) [RH = 90%]
Pressure (altimeter): 30.03 inches Hg (1017.0 mb)
[Sea-level pressure: 1016.7 mb]
Winds: from the SSW (200 degrees) at 3 MPH (3 knots; 1.6 m/s)
Visibility: 10 or more miles (16+ km)
Ceiling: at least 12,000 feet AGL
Clouds: sky clear below 12,000 feet AGL
Present Weather: automated observation with no human augmentation;
there may or may not be significant weather present at this time
KLEE 220853Z AUTO 20003KT 10SM CLR 25/23 A3003 RMK AO2 SLP167 T02500233 55009